createdAt,value
2019-06-07T00:04:41.974Z,11
2019-06-07T00:09:41.975Z,8
2019-06-07T00:14:41.978Z,8
2019-06-07T00:19:41.985Z,8
2019-06-07T00:24:41.988Z,8
2019-06-07T00:29:41.989Z,7
2019-06-07T00:34:41.997Z,6
2019-06-07T00:39:41.995Z,7
2019-06-07T00:44:41.989Z,7
2019-06-07T00:49:41.993Z,7
2019-06-07T00:54:41.995Z,7
2019-06-07T00:59:42.005Z,7
2019-06-07T01:04:42.003Z,8
2019-06-07T01:09:42.013Z,8
2019-06-07T01:14:42.016Z,8
2019-06-07T01:19:42.014Z,8
2019-06-07T01:24:42.011Z,6
2019-06-07T01:29:42.031Z,8
2019-06-07T01:34:42.011Z,9
2019-06-07T01:39:42.025Z,6
2019-06-07T01:44:42.015Z,14
2019-06-07T01:49:42.018Z,28
2019-06-07T01:54:55.843Z,8
2019-06-07T01:59:42.032Z,11
2019-06-07T02:04:42.025Z,33
2019-06-07T02:09:42.026Z,42
2019-06-07T02:14:42.036Z,10
2019-06-07T02:19:42.034Z,8
2019-06-07T02:24:42.030Z,6
2019-06-07T02:29:42.032Z,5
2019-06-07T02:34:42.059Z,5
2019-06-07T02:39:42.049Z,6
2019-06-07T02:44:42.041Z,5
2019-06-07T02:49:42.561Z,5
2019-06-07T02:54:42.063Z,8
2019-06-07T03:00:04.895Z,7
2019-06-07T03:04:44.680Z,9
2019-06-07T03:09:42.050Z,7
2019-06-07T03:14:42.066Z,8
2019-06-07T03:19:42.055Z,8
2019-06-07T03:24:44.075Z,8
2019-06-07T03:29:42.053Z,9
2019-06-07T03:34:43.641Z,8
2019-06-07T03:39:42.060Z,8
2019-06-07T03:44:42.081Z,7
2019-06-07T03:49:42.695Z,8
2019-06-07T03:54:42.063Z,8
2019-06-07T03:59:42.071Z,8
2019-06-07T04:04:42.063Z,10
2019-06-07T04:09:43.169Z,9
2019-06-07T04:14:42.785Z,7
2019-06-07T04:19:43.195Z,8
2019-06-07T04:24:42.223Z,8
2019-06-07T04:30:05.182Z,9
2019-06-07T04:34:42.949Z,9
2019-06-07T04:39:44.853Z,8
2019-06-07T04:44:42.768Z,8
2019-06-07T04:49:44.187Z,8
2019-06-07T04:54:45.823Z,9
2019-06-07T05:00:10.404Z,9
2019-06-07T05:04:42.441Z,9
2019-06-07T05:09:43.218Z,9
2019-06-07T05:14:44.136Z,10
2019-06-07T05:19:44.414Z,10
2019-06-07T05:24:43.873Z,13
2019-06-07T05:29:44.288Z,14
2019-06-07T05:34:46.917Z,14
2019-06-07T05:39:45.416Z,15
2019-06-07T05:44:44.009Z,16
2019-06-07T05:49:44.627Z,13
2019-06-07T05:54:43.070Z,14
2019-06-07T05:59:44.771Z,14
2019-06-07T06:04:45.723Z,14
2019-06-07T06:09:43.179Z,12
2019-06-07T06:14:44.099Z,15
2019-06-07T06:19:46.153Z,15
2019-06-07T06:29:52.437Z,14
2019-06-07T06:34:53.824Z,16
2019-06-07T06:39:51.284Z,18
2019-06-07T06:44:53.951Z,17
2019-06-07T06:49:54.204Z,17
2019-06-07T06:54:59.177Z,16
2019-06-07T06:59:52.737Z,16
2019-06-07T07:04:52.496Z,17
2019-06-07T07:09:57.454Z,18
2019-06-07T07:14:52.851Z,17
2019-06-07T07:19:52.875Z,17
2019-06-07T07:24:53.282Z,17
2019-06-07T07:30:04.783Z,17
2019-06-07T07:34:54.389Z,17
2019-06-07T07:39:56.911Z,17
2019-06-07T07:44:53.674Z,15
2019-06-07T07:49:52.904Z,17
2019-06-07T07:54:52.716Z,16
2019-06-07T08:00:05.791Z,16
2019-06-07T08:05:16.302Z,16
2019-06-07T08:09:55.619Z,17
2019-06-07T08:14:54.499Z,15
2019-06-07T08:19:52.116Z,17
2019-06-07T08:24:52.948Z,17
2019-06-07T08:30:07.691Z,15
2019-06-07T08:34:53.279Z,16
2019-06-07T08:39:52.719Z,16
2019-06-07T08:44:53.532Z,16
2019-06-07T08:49:55.920Z,16
2019-06-07T08:54:52.324Z,16
2019-06-07T08:59:52.995Z,17
2019-06-07T09:04:54.594Z,17
2019-06-07T09:09:54.867Z,17
2019-06-07T09:15:02.671Z,17
2019-06-07T09:19:51.319Z,18
2019-06-07T09:24:51.316Z,17
2019-06-07T09:29:51.321Z,17
2019-06-07T09:34:51.315Z,17
2019-06-07T09:39:51.320Z,16
2019-06-07T09:44:51.309Z,16
2019-06-07T09:49:51.314Z,15
2019-06-07T09:55:19.418Z,18
2019-06-07T09:59:51.319Z,17
2019-06-07T10:04:51.311Z,16
2019-06-07T10:14:51.317Z,18
2019-06-07T10:19:51.324Z,17
2019-06-07T10:24:51.322Z,16
2019-06-07T10:29:51.320Z,16
2019-06-07T10:34:51.319Z,18
2019-06-07T10:39:51.326Z,17
2019-06-07T10:44:51.365Z,17
2019-06-07T10:49:51.336Z,18
2019-06-07T10:54:51.322Z,18
2019-06-07T10:59:51.325Z,17
2019-06-07T11:04:51.319Z,17
2019-06-07T11:10:05.579Z,18
2019-06-07T11:14:51.323Z,17
2019-06-07T11:19:51.320Z,18
2019-06-07T11:24:51.329Z,19
2019-06-07T11:29:51.328Z,18
2019-06-07T11:34:51.347Z,18
2019-06-07T11:39:51.355Z,17
2019-06-07T11:44:56.564Z,19
2019-06-07T11:49:51.326Z,19
2019-06-07T11:54:51.333Z,18
2019-06-07T11:59:51.333Z,17
2019-06-07T12:04:51.339Z,15
2019-06-07T12:09:56.209Z,16
2019-06-07T12:14:51.338Z,14
2019-06-07T12:19:51.337Z,15
2019-06-07T12:24:51.354Z,16
2019-06-07T12:29:51.340Z,17
2019-06-07T12:34:51.340Z,15
2019-06-07T12:39:51.340Z,17
2019-06-07T12:44:51.337Z,17
2019-06-07T12:49:51.340Z,18
2019-06-07T12:54:51.347Z,18
2019-06-07T12:59:51.363Z,16
2019-06-07T13:04:51.358Z,13
2019-06-07T13:09:51.352Z,12
2019-06-07T13:14:51.356Z,14
2019-06-07T13:19:51.357Z,13
2019-06-07T13:24:51.353Z,13
2019-06-07T13:29:51.383Z,12
2019-06-07T13:34:51.358Z,12
2019-06-07T13:39:51.406Z,13
2019-06-07T13:44:51.395Z,14
2019-06-07T13:49:55.039Z,12
2019-06-07T13:54:51.372Z,11
2019-06-07T13:59:51.370Z,10
2019-06-07T14:04:51.397Z,10
2019-06-07T14:09:51.384Z,9
2019-06-07T14:14:51.367Z,8
2019-06-07T14:19:51.364Z,6
2019-06-07T14:24:51.524Z,6
2019-06-07T14:29:51.385Z,6
2019-06-07T14:34:51.378Z,7
2019-06-07T14:39:51.376Z,7
2019-06-07T14:44:51.379Z,7
2019-06-07T14:49:51.377Z,8
2019-06-07T14:54:51.379Z,7
2019-06-07T14:59:51.377Z,7
2019-06-07T15:04:51.461Z,6
2019-06-07T15:09:51.463Z,6
2019-06-07T15:14:51.433Z,8
2019-06-07T15:19:51.503Z,7
2019-06-07T15:24:51.461Z,6
2019-06-07T15:29:51.386Z,6
2019-06-07T15:34:51.415Z,5
2019-06-07T15:39:51.385Z,5
2019-06-07T15:44:51.398Z,3
2019-06-07T15:49:51.394Z,4
2019-06-07T15:54:51.390Z,3
2019-06-07T15:59:51.397Z,2
2019-06-07T16:04:51.389Z,3
2019-06-07T16:09:51.404Z,2
2019-06-07T16:14:51.406Z,2
2019-06-07T16:19:51.405Z,2
2019-06-07T16:24:51.395Z,2
2019-06-07T16:29:51.396Z,3
2019-06-07T16:34:51.394Z,4
2019-06-07T16:39:51.396Z,3
2019-06-07T16:44:51.394Z,2
2019-06-07T16:49:51.470Z,2
2019-06-07T16:54:51.389Z,3
2019-06-07T16:59:51.400Z,2
2019-06-07T17:04:51.401Z,2
2019-06-07T17:09:51.398Z,2
2019-06-07T17:14:51.402Z,2
2019-06-07T17:19:51.399Z,2
2019-06-07T17:24:51.403Z,2
2019-06-07T17:29:51.403Z,2
2019-06-07T17:34:51.398Z,2
2019-06-07T17:39:51.397Z,1
2019-06-07T17:44:51.603Z,2
2019-06-07T17:49:52.139Z,2
2019-06-07T17:54:52.330Z,3
2019-06-07T17:59:52.602Z,1
2019-06-07T18:04:51.414Z,3
2019-06-07T18:09:51.650Z,2
2019-06-07T18:14:52.081Z,2
2019-06-07T18:19:51.402Z,1
2019-06-07T18:24:52.705Z,2
2019-06-07T18:29:52.535Z,2
2019-06-07T18:34:51.406Z,2
2019-06-07T18:39:51.411Z,2
2019-06-07T18:44:51.411Z,2
2019-06-07T18:49:51.540Z,2
2019-06-07T18:54:51.412Z,2
2019-06-07T18:59:52.278Z,2
2019-06-07T19:04:52.224Z,2
2019-06-07T19:09:52.570Z,1
2019-06-07T19:14:51.548Z,2
2019-06-07T19:19:51.932Z,2
2019-06-07T19:24:52.092Z,2
2019-06-07T19:29:52.651Z,1
2019-06-07T19:34:51.409Z,1
2019-06-07T19:39:51.699Z,2
2019-06-07T19:44:54.856Z,2
2019-06-07T19:49:52.956Z,2
2019-06-07T19:54:51.414Z,2
2019-06-07T19:59:51.412Z,2
2019-06-07T20:04:51.413Z,1
2019-06-07T20:09:51.414Z,2
2019-06-07T20:14:53.841Z,2
2019-06-07T20:19:51.425Z,2
2019-06-07T20:24:51.411Z,1
2019-06-07T20:29:51.413Z,2
2019-06-07T20:34:51.410Z,2
2019-06-07T20:39:51.416Z,1
2019-06-07T20:44:51.412Z,1
2019-06-07T20:49:51.420Z,1
2019-06-07T20:54:51.418Z,1
2019-06-07T20:59:51.419Z,1
2019-06-07T21:04:51.433Z,2
2019-06-07T21:09:51.419Z,1
2019-06-07T21:14:51.453Z,1
2019-06-07T21:19:51.709Z,2
2019-06-07T21:24:51.423Z,2
2019-06-07T21:29:51.421Z,1
2019-06-07T21:34:51.417Z,2
2019-06-07T21:39:51.427Z,1
2019-06-07T21:44:51.420Z,1
2019-06-07T21:49:51.419Z,1
2019-06-07T21:54:51.424Z,2
2019-06-07T21:59:51.423Z,1
2019-06-07T22:04:51.424Z,2
2019-06-07T22:09:51.423Z,2
2019-06-07T22:14:51.420Z,2
2019-06-07T22:19:51.431Z,1
2019-06-07T22:24:51.424Z,2
2019-06-07T22:29:51.421Z,2
2019-06-07T22:34:51.422Z,2
2019-06-07T22:39:51.433Z,2
2019-06-07T22:44:51.426Z,2
2019-06-07T22:49:51.436Z,1
2019-06-07T22:54:51.427Z,1
2019-06-07T22:59:51.427Z,2
2019-06-07T23:04:51.443Z,2
2019-06-07T23:09:51.443Z,2
2019-06-07T23:14:51.437Z,1
2019-06-07T23:19:51.454Z,2
2019-06-07T23:24:51.430Z,1
2019-06-07T23:29:51.431Z,2
2019-06-07T23:34:51.429Z,1
2019-06-07T23:39:51.435Z,1
2019-06-07T23:44:51.499Z,2
2019-06-07T23:49:51.431Z,2
2019-06-07T23:54:51.433Z,1
2019-06-07T23:59:51.436Z,2
